createdAt,value
2024-05-09T00:00:39.163Z,96058.38
2024-05-09T00:03:09.015Z,96062.72
2024-05-09T00:05:37.565Z,96060.94
2024-05-09T00:08:06.068Z,96057.44
2024-05-09T00:10:37.125Z,96057.97
2024-05-09T00:13:09.950Z,96060.28
2024-05-09T00:15:38.230Z,96063.00
2024-05-09T00:18:06.271Z,96059.56
2024-05-09T00:20:38.852Z,96063.31
2024-05-09T00:23:09.152Z,96062.72
2024-05-09T00:25:37.575Z,96059.84
2024-05-09T00:28:05.495Z,96062.44
2024-05-09T00:30:36.882Z,96058.72
2024-05-09T00:33:06.504Z,96051.41
2024-05-09T00:35:35.318Z,96057.19
2024-05-09T00:38:02.725Z,96057.50
2024-05-09T00:40:38.776Z,96047.47
2024-05-09T00:43:09.009Z,96056.41
2024-05-09T00:45:38.727Z,96051.59
2024-05-09T00:48:08.963Z,96048.03
2024-05-09T00:50:41.310Z,96042.94
2024-05-09T00:53:11.774Z,96034.69
2024-05-09T00:55:40.598Z,96037.66
2024-05-09T00:58:10.383Z,96042.00
2024-05-09T01:00:41.548Z,96040.13
2024-05-09T01:03:11.249Z,96030.06
2024-05-09T01:05:40.683Z,96044.03
2024-05-09T01:08:09.659Z,96032.50
2024-05-09T01:10:37.229Z,96043.53
2024-05-09T01:13:05.406Z,96041.38
2024-05-09T01:15:33.120Z,96045.31
2024-05-09T01:18:08.605Z,96032.66
2024-05-09T01:20:41.862Z,96043.97
2024-05-09T01:23:15.832Z,96042.63
2024-05-09T01:25:44.519Z,96041.88
2024-05-09T01:28:12.247Z,96043.69
2024-05-09T01:30:39.384Z,96040.72
2024-05-09T01:33:08.880Z,96038.09
2024-05-09T01:35:38.310Z,96049.81
2024-05-09T01:38:05.641Z,96044.53
2024-05-09T01:40:38.810Z,96054.59
2024-05-09T01:43:07.565Z,96056.84
2024-05-09T01:45:34.943Z,96054.38
2024-05-09T01:48:03.020Z,96053.66
2024-05-09T01:50:38.155Z,96053.75
2024-05-09T01:53:09.337Z,96043.84
2024-05-09T01:55:39.755Z,96051.28
2024-05-09T01:58:06.869Z,96045.00
2024-05-09T02:00:39.494Z,96046.34
2024-05-09T02:03:12.325Z,96050.16
2024-05-09T02:05:42.458Z,96045.66
2024-05-09T02:08:13.593Z,96046.59
2024-05-09T02:10:43.670Z,96051.13
2024-05-09T02:13:10.857Z,96042.34
2024-05-09T02:15:38.395Z,96045.19
2024-05-09T02:18:06.148Z,96031.97
2024-05-09T02:20:36.465Z,96043.13
2024-05-09T02:23:05.304Z,96045.47
2024-05-09T02:25:32.959Z,96054.09
2024-05-09T02:28:02.903Z,96041.44
2024-05-09T02:30:38.272Z,96057.94
2024-05-09T02:33:09.349Z,96055.50
2024-05-09T02:35:37.693Z,96052.13
2024-05-09T02:38:05.136Z,96048.66
2024-05-09T02:40:37.326Z,96049.91
2024-05-09T02:43:12.679Z,96043.16
2024-05-09T02:45:40.642Z,96042.81
2024-05-09T02:48:10.659Z,96051.13
2024-05-09T02:50:39.969Z,96045.38
2024-05-09T02:53:08.236Z,96048.22
2024-05-09T02:55:35.795Z,96048.31
2024-05-09T02:58:02.969Z,96038.13
2024-05-09T03:00:39.122Z,96038.50
2024-05-09T03:03:11.425Z,96045.19
2024-05-09T03:05:42.016Z,96037.78
2024-05-09T03:08:09.656Z,96049.47
2024-05-09T03:10:38.706Z,96043.34
2024-05-09T03:13:07.248Z,96040.69
2024-05-09T03:15:37.339Z,96048.13
2024-05-09T03:18:05.860Z,96047.50
2024-05-09T03:20:35.546Z,96054.72
2024-05-09T03:23:04.325Z,96047.31
2024-05-09T03:25:31.650Z,96054.19
2024-05-09T03:27:58.410Z,96051.50
2024-05-09T03:30:31.277Z,96051.31
2024-05-09T03:33:13.554Z,96050.09
2024-05-09T03:35:41.269Z,96051.88
2024-05-09T03:38:08.077Z,96053.53
2024-05-09T03:40:35.233Z,96052.63
2024-05-09T03:43:01.937Z,96061.69
2024-05-09T03:45:28.647Z,96052.56
2024-05-09T03:47:55.605Z,96056.59
2024-05-09T03:50:30.335Z,96059.34
2024-05-09T03:53:01.166Z,96058.38
2024-05-09T03:55:28.307Z,96066.88
2024-05-09T03:57:55.064Z,96050.84
2024-05-09T04:00:30.797Z,96065.03
2024-05-09T04:03:04.643Z,96064.84
2024-05-09T04:05:35.111Z,96071.06
2024-05-09T04:08:02.112Z,96063.56
2024-05-09T04:10:33.322Z,96068.78
2024-05-09T04:13:01.689Z,96064.09
2024-05-09T04:15:28.482Z,96070.13
2024-05-09T04:17:55.369Z,96071.81
2024-05-09T04:20:33.036Z,96072.59
2024-05-09T04:23:11.729Z,96074.91
2024-05-09T04:25:42.038Z,96073.06
2024-05-09T04:28:09.130Z,96073.84
2024-05-09T04:30:39.485Z,96075.88
2024-05-09T04:33:11.400Z,96080.28
2024-05-09T04:35:40.805Z,96084.41
2024-05-09T04:38:10.884Z,96086.13
2024-05-09T04:40:38.529Z,96090.09
2024-05-09T04:43:07.090Z,96087.16
2024-05-09T04:45:34.580Z,96083.00
2024-05-09T04:48:02.171Z,96081.66
2024-05-09T04:50:35.740Z,96082.56
2024-05-09T04:53:06.360Z,96078.19
2024-05-09T04:55:36.286Z,96084.25
2024-05-09T04:58:03.186Z,96075.94
2024-05-09T05:00:35.953Z,96075.13
2024-05-09T05:03:06.060Z,96075.56
2024-05-09T05:05:33.394Z,96072.59
2024-05-09T05:08:00.177Z,96091.00
2024-05-09T05:10:33.787Z,96086.25
2024-05-09T05:13:05.712Z,96087.91
2024-05-09T05:15:32.395Z,96085.22
2024-05-09T05:17:59.234Z,96089.06
2024-05-09T05:20:32.728Z,96096.16
2024-05-09T05:23:00.692Z,96094.00
2024-05-09T05:25:27.580Z,96100.38
2024-05-09T05:27:54.297Z,96095.81
2024-05-09T05:30:29.028Z,96099.78
2024-05-09T05:33:00.258Z,96101.75
2024-05-09T05:35:27.363Z,96089.69
2024-05-09T05:37:54.141Z,96099.59
2024-05-09T05:40:28.234Z,96097.13
2024-05-09T05:43:02.658Z,96103.41
2024-05-09T05:45:32.382Z,96103.31
2024-05-09T05:47:59.997Z,96098.97
2024-05-09T05:50:34.082Z,96094.09
2024-05-09T05:53:06.195Z,96105.38
2024-05-09T05:55:33.518Z,96101.06
2024-05-09T05:58:01.064Z,96108.94
2024-05-09T06:00:34.771Z,96108.03
2024-05-09T06:03:09.328Z,96099.47
2024-05-09T06:05:37.663Z,96095.47
2024-05-09T06:08:05.700Z,96096.75
2024-05-09T06:10:38.310Z,96100.78
2024-05-09T06:13:08.153Z,96102.72
2024-05-09T06:15:35.257Z,96095.28
2024-05-09T06:18:07.808Z,96100.13
2024-05-09T06:20:37.684Z,96102.69
2024-05-09T06:23:06.649Z,96095.50
2024-05-09T06:25:34.754Z,96102.53
2024-05-09T06:28:02.156Z,96105.06
2024-05-09T06:30:37.841Z,96101.38
2024-05-09T06:33:13.244Z,96108.19
2024-05-09T06:35:43.178Z,96108.34
2024-05-09T06:38:10.599Z,96112.97
2024-05-09T06:40:41.661Z,96114.53
2024-05-09T06:43:13.014Z,96111.88
2024-05-09T06:45:40.335Z,96111.22
2024-05-09T06:48:11.274Z,96107.44
2024-05-09T06:50:40.010Z,96118.84
2024-05-09T06:53:08.003Z,96123.19
2024-05-09T06:55:36.787Z,96116.94
2024-05-09T06:58:05.258Z,96116.56
2024-05-09T07:00:38.779Z,96110.47
2024-05-09T07:03:14.842Z,96117.91
2024-05-09T07:05:44.826Z,96112.59
2024-05-09T07:08:12.783Z,96118.72
2024-05-09T07:10:40.032Z,96105.34
2024-05-09T07:13:09.013Z,96109.00
2024-05-09T07:15:36.335Z,96100.09
2024-05-09T07:18:11.182Z,96107.31
2024-05-09T07:20:39.074Z,96106.88
2024-05-09T07:23:08.525Z,96098.09
2024-05-09T07:25:35.432Z,96098.25
2024-05-09T07:28:02.675Z,96090.94
2024-05-09T07:30:33.517Z,96084.66
2024-05-09T07:33:02.629Z,96081.88
2024-05-09T07:35:32.904Z,96092.91
2024-05-09T07:38:00.417Z,96100.31
2024-05-09T07:40:34.957Z,96098.59
2024-05-09T07:43:03.770Z,96087.91
2024-05-09T07:45:47.741Z,96099.28
2024-05-09T07:53:39.177Z,96086.19
2024-05-09T07:56:10.159Z,96096.19
2024-05-09T07:58:38.588Z,96098.25
2024-05-09T08:01:06.079Z,96087.59
2024-05-09T08:03:33.420Z,96092.28
2024-05-09T08:06:02.955Z,96072.59
2024-05-09T08:08:29.652Z,96079.38
2024-05-09T08:10:56.813Z,96071.66
2024-05-09T08:13:24.216Z,96069.72
2024-05-09T08:15:51.665Z,96071.47
2024-05-09T08:18:19.243Z,96072.78
2024-05-09T08:20:50.181Z,96072.81
2024-05-09T08:23:20.652Z,96070.38
2024-05-09T08:25:47.733Z,96072.28
2024-05-09T08:28:15.120Z,96074.84
2024-05-09T08:30:42.837Z,96072.81
2024-05-09T08:33:10.558Z,96072.81
2024-05-09T08:35:37.928Z,96066.63
2024-05-09T08:38:07.251Z,96065.84
2024-05-09T08:40:38.374Z,96073.81
2024-05-09T08:43:08.357Z,96074.81
2024-05-09T08:45:36.110Z,96067.22
2024-05-09T08:48:07.802Z,96066.84
2024-05-09T08:50:39.125Z,96066.91
2024-05-09T08:53:08.178Z,96058.56
2024-05-09T08:55:41.753Z,96062.00
2024-05-09T08:58:14.888Z,96062.19
2024-05-09T09:00:44.101Z,96066.00
2024-05-09T09:03:15.939Z,96063.16
2024-05-09T09:06:01.447Z,96074.91
2024-05-09T09:08:28.700Z,96057.66
2024-05-09T09:10:59.495Z,96066.50
2024-05-09T09:13:27.310Z,96067.69
2024-05-09T09:15:54.869Z,96062.00
2024-05-09T09:18:24.235Z,96057.91
2024-05-09T09:20:51.437Z,96061.19
2024-05-09T09:23:18.636Z,96057.53
2024-05-09T09:25:45.862Z,96058.78
2024-05-09T09:28:16.036Z,96055.91
2024-05-09T09:30:43.418Z,96064.63
2024-05-09T09:33:11.676Z,96068.06
2024-05-09T09:35:40.224Z,96057.66
2024-05-09T09:38:08.870Z,96064.41
2024-05-09T09:40:41.097Z,96062.84
2024-05-09T09:43:19.060Z,96063.72
2024-05-09T09:45:49.633Z,96065.53
2024-05-09T09:48:17.470Z,96063.72
2024-05-09T09:50:45.773Z,96069.03
2024-05-09T09:53:14.179Z,96072.97
2024-05-09T09:55:41.854Z,96066.66
2024-05-09T09:58:13.392Z,96069.84
2024-05-09T10:00:45.140Z,96061.94
2024-05-09T10:03:12.626Z,96055.31
2024-05-09T10:05:43.976Z,96063.69
2024-05-09T10:08:15.839Z,96050.66
2024-05-09T10:10:46.954Z,96053.22
2024-05-09T10:13:14.461Z,96054.31
2024-05-09T10:15:52.504Z,96046.41
2024-05-09T10:18:20.324Z,96044.00
2024-05-09T10:20:47.473Z,96042.84
2024-05-09T10:23:25.484Z,96042.03
2024-05-09T10:25:56.938Z,96037.66
2024-05-09T10:28:25.878Z,96040.66
2024-05-09T10:31:06.556Z,96048.13
2024-05-09T10:33:37.797Z,96045.31
2024-05-09T10:36:10.252Z,96043.84
2024-05-09T10:38:37.160Z,96045.84
2024-05-09T10:41:04.694Z,96040.06
2024-05-09T10:43:31.490Z,96045.72
2024-05-09T10:45:58.223Z,96039.88
2024-05-09T10:48:27.912Z,96035.06
2024-05-09T10:50:54.765Z,96042.84
2024-05-09T10:53:21.477Z,96039.97
2024-05-09T10:55:55.785Z,96040.78
2024-05-09T10:58:22.905Z,96039.53
2024-05-09T11:00:50.717Z,96037.91
2024-05-09T11:03:18.306Z,96038.75
2024-05-09T11:05:48.738Z,96037.94
2024-05-09T11:08:16.368Z,96029.69
2024-05-09T11:10:44.996Z,96026.44
2024-05-09T11:13:11.833Z,96022.97
2024-05-09T11:15:38.950Z,96023.56
2024-05-09T11:18:06.144Z,96018.88
2024-05-09T11:20:36.902Z,96016.41
2024-05-09T11:23:07.771Z,96015.19
2024-05-09T11:25:34.911Z,96010.84
2024-05-09T11:28:02.485Z,96003.47
2024-05-09T11:30:32.078Z,96015.75
2024-05-09T11:33:00.108Z,96009.09
2024-05-09T11:35:27.267Z,96005.78
2024-05-09T11:37:54.491Z,96004.56
2024-05-09T11:40:28.070Z,96003.88
2024-05-09T11:42:59.430Z,96019.06
2024-05-09T11:45:26.867Z,96004.94
2024-05-09T11:47:54.114Z,96001.72
2024-05-09T11:50:27.200Z,96013.22
2024-05-09T11:52:59.241Z,96002.28
2024-05-09T11:55:28.673Z,96002.50
2024-05-09T11:57:55.832Z,96000.25
2024-05-09T12:00:29.766Z,95993.38
2024-05-09T12:03:03.946Z,95992.63
2024-05-09T12:05:30.840Z,95992.03
2024-05-09T12:07:57.889Z,95987.00
2024-05-09T12:10:32.566Z,95989.44
2024-05-09T12:13:06.567Z,95981.94
2024-05-09T12:15:35.754Z,95979.31
2024-05-09T12:18:04.104Z,95988.91
2024-05-09T12:20:36.946Z,95982.44
2024-05-09T12:23:07.204Z,95974.53
2024-05-09T12:25:34.356Z,95971.84
2024-05-09T12:28:01.366Z,95972.59
2024-05-09T12:30:36.725Z,95970.69
2024-05-09T12:33:08.063Z,95967.38
2024-05-09T12:35:35.015Z,95980.81
2024-05-09T12:38:01.897Z,95967.84
2024-05-09T12:40:35.649Z,95961.75
2024-05-09T12:43:06.352Z,95959.53
2024-05-09T12:45:36.330Z,95953.88
2024-05-09T12:48:04.077Z,95951.94
2024-05-09T12:50:33.376Z,95971.06
2024-05-09T12:53:02.643Z,95959.94
2024-05-09T12:55:37.167Z,95958.47
2024-05-09T12:58:12.099Z,95959.38
2024-05-09T13:00:42.103Z,95952.22
2024-05-09T13:03:09.443Z,95957.03
2024-05-09T13:05:36.693Z,95957.63
2024-05-09T13:08:04.550Z,95942.22
2024-05-09T13:10:33.199Z,95942.59
2024-05-09T13:13:01.857Z,95947.50
2024-05-09T13:15:30.182Z,95945.34
2024-05-09T13:18:02.750Z,95944.97
2024-05-09T13:20:34.496Z,95946.59
2024-05-09T13:23:05.381Z,95934.59
2024-05-09T13:25:33.189Z,95943.78
2024-05-09T13:28:00.531Z,95943.03
2024-05-09T13:30:35.644Z,95931.09
2024-05-09T13:33:12.053Z,95927.75
2024-05-09T13:35:45.709Z,95923.16
2024-05-09T13:38:17.365Z,95929.16
2024-05-09T13:40:44.860Z,95916.72
2024-05-09T13:43:12.444Z,95929.19
2024-05-09T13:45:39.792Z,95920.22
2024-05-09T13:48:10.365Z,95922.50
2024-05-09T13:50:38.493Z,95919.50
2024-05-09T13:53:07.354Z,95905.38
2024-05-09T13:55:38.099Z,95900.59
2024-05-09T13:58:05.534Z,95911.78
2024-05-09T14:00:43.821Z,95908.00
2024-05-09T14:03:19.761Z,95904.84
2024-05-09T14:05:48.672Z,95898.47
2024-05-09T14:08:16.391Z,95909.22
2024-05-09T14:10:45.506Z,95908.94
2024-05-09T14:13:13.767Z,95908.50
2024-05-09T14:15:41.238Z,95903.28
2024-05-09T14:18:12.607Z,95911.13
2024-05-09T14:20:43.820Z,95896.53
2024-05-09T14:23:11.249Z,95906.38
2024-05-09T14:25:41.495Z,95902.13
2024-05-09T14:28:10.780Z,95894.75
2024-05-09T14:30:39.023Z,95902.59
2024-05-09T14:33:08.171Z,95889.00
2024-05-09T14:35:36.860Z,95899.22
2024-05-09T14:38:07.463Z,95896.53
2024-05-09T14:40:41.687Z,95898.69
2024-05-09T14:43:12.567Z,95904.56
2024-05-09T14:45:40.705Z,95897.59
2024-05-09T14:48:08.965Z,95899.72
2024-05-09T14:50:39.038Z,95901.88
2024-05-09T14:53:11.635Z,95891.13
2024-05-09T14:55:40.503Z,95891.69
2024-05-09T14:58:10.012Z,95892.41
2024-05-09T15:00:41.660Z,95889.38
2024-05-09T15:03:12.341Z,95888.34
2024-05-09T15:05:40.052Z,95885.06
2024-05-09T15:08:10.606Z,95886.81
2024-05-09T15:10:37.999Z,95880.88
2024-05-09T15:13:07.199Z,95884.03
2024-05-09T15:15:36.078Z,95875.75
2024-05-09T15:18:03.945Z,95885.16
2024-05-09T15:20:35.387Z,95874.66
2024-05-09T15:23:06.232Z,95877.00
2024-05-09T15:25:37.238Z,95871.38
2024-05-09T15:28:05.429Z,95876.91
2024-05-09T15:30:34.085Z,95876.19
2024-05-09T15:33:02.864Z,95874.72
2024-05-09T15:35:29.936Z,95884.09
2024-05-09T15:37:57.187Z,95879.13
2024-05-09T15:40:34.433Z,95875.34
2024-05-09T15:43:10.600Z,95867.25
2024-05-09T15:45:39.093Z,95869.75
2024-05-09T15:48:08.964Z,95868.72
2024-05-09T15:50:39.944Z,95868.44
2024-05-09T15:53:10.319Z,95865.19
2024-05-09T15:55:37.995Z,95872.94
2024-05-09T15:58:08.486Z,95873.72
2024-05-09T16:00:39.654Z,95872.38
2024-05-09T16:03:10.271Z,95865.41
2024-05-09T16:05:38.210Z,95869.94
2024-05-09T16:08:06.481Z,95862.78
2024-05-09T16:10:34.938Z,95857.00
2024-05-09T16:13:03.513Z,95858.72
2024-05-09T16:15:33.853Z,95851.66
2024-05-09T16:18:01.278Z,95849.50
2024-05-09T16:20:37.881Z,95847.13
2024-05-09T16:23:08.598Z,95840.69
2024-05-09T16:25:36.702Z,95851.25
2024-05-09T16:28:07.392Z,95852.78
2024-05-09T16:30:40.344Z,95847.56
2024-05-09T16:33:08.583Z,95850.81
2024-05-09T16:35:36.743Z,95851.69
2024-05-09T16:38:04.509Z,95846.28
2024-05-09T16:40:37.974Z,95856.00
2024-05-09T16:43:08.836Z,95850.59
2024-05-09T16:45:39.608Z,95850.53
2024-05-09T16:48:08.362Z,95846.81
2024-05-09T16:50:36.361Z,95843.47
2024-05-09T16:53:05.189Z,95842.97
2024-05-09T16:55:33.303Z,95840.53
2024-05-09T16:58:01.395Z,95855.44
2024-05-09T17:00:38.293Z,95848.41
2024-05-09T17:03:14.589Z,95850.25
2024-05-09T17:05:43.366Z,95852.81
2024-05-09T17:08:11.075Z,95855.94
2024-05-09T17:10:38.493Z,95857.63
2024-05-09T17:13:07.511Z,95855.91
2024-05-09T17:15:36.656Z,95844.00
2024-05-09T17:18:06.189Z,95853.47
2024-05-09T17:20:37.451Z,95849.25
2024-05-09T17:23:06.319Z,95857.03
2024-05-09T17:25:34.537Z,95851.06
2024-05-09T17:28:02.326Z,95858.09
2024-05-09T17:30:35.297Z,95855.25
2024-05-09T17:33:07.233Z,95857.63
2024-05-09T17:35:37.483Z,95862.41
2024-05-09T17:38:05.228Z,95857.16
2024-05-09T17:40:35.880Z,95849.13
2024-05-09T17:43:05.960Z,95855.25
2024-05-09T17:45:33.870Z,95857.47
2024-05-09T17:48:01.686Z,95854.81
2024-05-09T17:50:35.411Z,95854.81
2024-05-09T17:53:07.925Z,95855.50
2024-05-09T17:55:36.279Z,95849.75
2024-05-09T17:58:04.735Z,95853.53
2024-05-09T18:00:38.780Z,95854.84
2024-05-09T18:03:09.444Z,95855.50
2024-05-09T18:05:37.485Z,95856.13
2024-05-09T18:08:08.673Z,95860.16
2024-05-09T18:10:38.824Z,95861.53
2024-05-09T18:13:07.598Z,95862.97
2024-05-09T18:15:34.876Z,95861.91
2024-05-09T18:18:02.819Z,95864.84
2024-05-09T18:20:39.334Z,95866.66
2024-05-09T18:23:16.093Z,95861.84
2024-05-09T18:25:45.304Z,95866.03
2024-05-09T18:28:12.720Z,95861.31
2024-05-09T18:30:40.206Z,95861.63
2024-05-09T18:33:09.523Z,95864.22
2024-05-09T18:35:37.108Z,95865.09
2024-05-09T18:38:04.754Z,95861.84
2024-05-09T18:40:37.098Z,95855.31
2024-05-09T18:43:07.843Z,95848.19
2024-05-09T18:45:36.581Z,95857.75
2024-05-09T18:48:04.833Z,95858.41
2024-05-09T18:50:36.470Z,95860.22
2024-05-09T18:53:06.607Z,95856.66
2024-05-09T18:55:36.406Z,95866.94
2024-05-09T18:58:04.218Z,95864.13
2024-05-09T19:00:36.088Z,95867.69
2024-05-09T19:03:06.772Z,95859.25
2024-05-09T19:05:35.628Z,95860.00
2024-05-09T19:08:03.657Z,95867.88
2024-05-09T19:10:34.483Z,95877.25
2024-05-09T19:13:10.411Z,95874.34
2024-05-09T19:15:40.754Z,95877.66
2024-05-09T19:18:09.381Z,95876.72
2024-05-09T19:20:37.354Z,95883.09
2024-05-09T19:23:05.922Z,95877.78
2024-05-09T19:25:33.852Z,95875.66
2024-05-09T19:28:01.334Z,95886.81
2024-05-09T19:30:38.599Z,95883.91
2024-05-09T19:33:10.612Z,95883.25
2024-05-09T19:35:38.864Z,95890.53
2024-05-09T19:38:06.490Z,95888.28
2024-05-09T19:40:35.006Z,95889.56
2024-05-09T19:43:03.690Z,95898.72
2024-05-09T19:45:34.953Z,95887.28
2024-05-09T19:48:03.774Z,95897.47
2024-05-09T19:50:37.895Z,95891.63
2024-05-09T19:53:10.262Z,95893.88
2024-05-09T19:55:37.496Z,95895.75
2024-05-09T19:58:06.538Z,95897.44
2024-05-09T20:00:40.510Z,95903.69
2024-05-09T20:03:10.709Z,95898.44
2024-05-09T20:05:38.172Z,95899.81
2024-05-09T20:08:06.528Z,95893.97
2024-05-09T20:10:35.538Z,95898.16
2024-05-09T20:13:04.767Z,95894.09
2024-05-09T20:15:36.863Z,95901.00
2024-05-09T20:18:04.762Z,95899.44
2024-05-09T20:20:38.136Z,95902.25
2024-05-09T20:23:08.458Z,95899.91
2024-05-09T20:25:35.149Z,95909.09
2024-05-09T20:28:02.102Z,95913.59
2024-05-09T20:30:32.574Z,95920.31
2024-05-09T20:33:06.314Z,95913.16
2024-05-09T20:35:34.808Z,95919.19
2024-05-09T20:38:03.004Z,95920.16
2024-05-09T20:40:34.726Z,95911.22
2024-05-09T20:43:05.345Z,95917.44
2024-05-09T20:45:32.409Z,95911.69
2024-05-09T20:47:59.494Z,95904.13
2024-05-09T20:50:36.922Z,95913.22
2024-05-09T20:53:08.436Z,95909.22
2024-05-09T20:55:35.572Z,95914.34
2024-05-09T20:58:02.732Z,95912.59
2024-05-09T21:00:37.802Z,95902.50
2024-05-09T21:03:08.404Z,95904.16
2024-05-09T21:05:38.393Z,95903.53
2024-05-09T21:08:06.463Z,95907.47
2024-05-09T21:10:34.715Z,95898.44
2024-05-09T21:13:03.090Z,95894.09
2024-05-09T21:15:31.217Z,95898.44
2024-05-09T21:17:58.710Z,95889.69
2024-05-09T21:20:31.243Z,95898.25
2024-05-09T21:23:03.250Z,95894.78
2024-05-09T21:25:30.866Z,95888.81
2024-05-09T21:27:58.199Z,95899.03
2024-05-09T21:32:55.501Z,95904.00
2024-05-09T21:35:22.758Z,95897.63
2024-05-09T21:37:49.935Z,95900.69
2024-05-09T21:40:27.110Z,95904.28
2024-05-09T21:43:01.087Z,95896.94
2024-05-09T21:45:28.458Z,95892.44
2024-05-09T21:47:55.795Z,95888.94
2024-05-09T21:50:28.692Z,95895.28
2024-05-09T21:53:03.862Z,95901.44
2024-05-09T21:55:33.689Z,95906.13
2024-05-09T21:58:00.956Z,95908.44
2024-05-09T22:00:35.271Z,95912.16
2024-05-09T22:03:05.758Z,95901.06
2024-05-09T22:05:33.375Z,95906.38
2024-05-09T22:08:00.708Z,95907.47
2024-05-09T22:10:33.755Z,95892.47
2024-05-09T22:13:06.770Z,95905.56
2024-05-09T22:15:35.246Z,95900.63
2024-05-09T22:18:02.788Z,95906.75
2024-05-09T22:20:36.635Z,95907.56
2024-05-09T22:23:06.051Z,95903.91
2024-05-09T22:25:33.646Z,95901.59
2024-05-09T22:28:01.699Z,95904.72
2024-05-09T22:30:36.461Z,95902.06
2024-05-09T22:33:06.832Z,95904.72
2024-05-09T22:35:34.207Z,95910.22
2024-05-09T22:38:02.307Z,95904.28
2024-05-09T22:40:38.864Z,95907.63
2024-05-09T22:43:20.681Z,95912.81
2024-05-09T22:45:52.659Z,95910.53
2024-05-09T22:48:20.452Z,95914.66
2024-05-09T22:50:47.677Z,95911.16
2024-05-09T22:53:14.973Z,95922.81
2024-05-09T22:55:42.372Z,95911.50
2024-05-09T22:58:09.682Z,95908.88
2024-05-09T23:00:36.983Z,95923.97
2024-05-09T23:03:06.905Z,95921.53
2024-05-09T23:05:34.219Z,95908.03
2024-05-09T23:08:02.149Z,95906.19
2024-05-09T23:10:35.559Z,95916.19
2024-05-09T23:13:05.875Z,95910.84
2024-05-09T23:15:33.298Z,95919.00
2024-05-09T23:18:00.539Z,95911.69
2024-05-09T23:20:36.981Z,95922.97
2024-05-09T23:23:06.784Z,95914.19
2024-05-09T23:25:34.153Z,95912.81
2024-05-09T23:28:01.395Z,95912.34
2024-05-09T23:30:36.238Z,95918.53
2024-05-09T23:33:07.583Z,95919.13
2024-05-09T23:35:37.985Z,95910.75
2024-05-09T23:38:05.280Z,95917.59
2024-05-09T23:43:03.123Z,95919.28
2024-05-09T23:45:30.240Z,95914.88
2024-05-09T23:47:57.433Z,95908.34
2024-05-09T23:50:33.094Z,95902.44
2024-05-09T23:53:07.766Z,95908.88
2024-05-09T23:55:36.178Z,95903.03
2024-05-09T23:58:03.513Z,95909.97
